createdAt,value
2023-04-05T00:00:23.552Z,1.74
2023-04-05T00:05:31.108Z,1.77
2023-04-05T00:10:32.652Z,1.80
2023-04-05T00:15:34.225Z,1.83
2023-04-05T00:20:37.462Z,1.87
2023-04-05T00:25:38.869Z,1.85
2023-04-05T00:30:40.709Z,1.74
2023-04-05T00:35:42.326Z,1.74
2023-04-05T00:40:43.960Z,1.82
2023-04-05T00:45:46.376Z,1.74
2023-04-05T00:50:50.038Z,1.71
2023-04-05T00:55:54.086Z,1.75
2023-04-05T01:01:18.584Z,1.72
2023-04-05T01:06:42.182Z,1.75
2023-04-05T01:11:47.271Z,1.52
2023-04-05T01:16:49.890Z,1.56
2023-04-05T01:22:14.116Z,1.50
2023-04-05T01:27:36.409Z,1.47
2023-04-05T01:32:54.227Z,1.36
2023-04-05T01:38:00.890Z,1.42
2023-04-05T01:43:03.230Z,1.40
2023-04-05T01:48:04.841Z,1.46
2023-04-05T01:53:09.292Z,1.47
2023-04-05T01:58:10.830Z,1.54
2023-04-05T02:03:12.404Z,1.37
2023-04-05T02:08:14.366Z,1.50
2023-04-05T02:13:16.042Z,1.47
2023-04-05T02:18:22.434Z,1.23
2023-04-05T02:23:24.051Z,1.36
2023-04-05T02:28:26.049Z,1.37
2023-04-05T02:33:27.888Z,1.22
2023-04-05T02:38:29.706Z,1.22
2023-04-05T02:43:31.157Z,1.19
2023-04-05T02:48:32.853Z,1.12
2023-04-05T02:53:35.352Z,1.11
2023-04-05T02:58:36.784Z,1.06
2023-04-05T03:03:40.258Z,1.06
2023-04-05T03:08:48.584Z,0.98
2023-04-05T03:13:50.186Z,0.98
2023-04-05T03:18:51.600Z,1.01
2023-04-05T03:23:53.038Z,0.98
2023-04-05T03:28:54.480Z,0.83
2023-04-05T03:33:56.063Z,0.94
2023-04-05T03:38:57.536Z,0.98
2023-04-05T03:43:59.261Z,1.06
2023-04-05T03:49:01.390Z,1.15
2023-04-05T03:54:02.866Z,1.04
2023-04-05T03:59:04.335Z,1.03
2023-04-05T04:04:05.842Z,0.93
2023-04-05T04:09:07.294Z,0.88
2023-04-05T04:14:08.713Z,0.83
2023-04-05T04:19:10.209Z,0.89
2023-04-05T04:24:18.629Z,0.79
2023-04-05T04:29:20.206Z,0.74
2023-04-05T04:34:21.666Z,0.77
2023-04-05T04:39:26.797Z,0.77
2023-04-05T04:44:28.307Z,0.79
2023-04-05T04:49:33.086Z,0.68
2023-04-05T04:54:36.055Z,0.69
2023-04-05T04:59:37.602Z,0.90
2023-04-05T05:04:41.483Z,1.07
2023-04-05T05:09:43.375Z,1.20
2023-04-05T05:14:44.786Z,1.38
2023-04-05T05:19:46.246Z,1.30
2023-04-05T05:24:48.134Z,1.57
2023-04-05T05:29:49.646Z,1.37
2023-04-05T05:34:51.105Z,1.47
2023-04-05T05:39:52.565Z,1.61
2023-04-05T05:44:54.105Z,1.70
2023-04-05T05:49:56.206Z,1.95
2023-04-05T05:54:57.620Z,2.22
2023-04-05T05:59:59.025Z,2.36
2023-04-05T06:05:02.192Z,2.43
2023-04-05T06:10:07.839Z,2.60
2023-04-05T06:15:09.734Z,2.69
2023-04-05T06:20:11.834Z,2.80
2023-04-05T06:25:13.444Z,2.91
2023-04-05T06:30:15.027Z,3.18
2023-04-05T06:35:16.556Z,3.26
2023-04-05T06:40:18.333Z,3.45
2023-04-05T06:45:19.885Z,3.31
2023-04-05T06:50:21.429Z,3.17
2023-04-05T06:55:22.911Z,3.33
2023-04-05T07:00:24.404Z,3.74
2023-04-05T07:05:26.060Z,4.00
2023-04-05T07:10:27.528Z,4.10
2023-04-05T07:15:28.982Z,4.18
2023-04-05T07:20:30.436Z,4.06
2023-04-05T07:25:32.306Z,4.23
2023-04-05T07:30:33.730Z,4.41
2023-04-05T07:35:35.321Z,4.64
2023-04-05T07:40:37.029Z,4.80
2023-04-05T07:45:38.480Z,4.84
2023-04-05T07:50:41.216Z,4.97
2023-04-05T07:55:43.145Z,4.89
2023-04-05T08:00:44.579Z,4.71
2023-04-05T08:05:46.035Z,4.50
2023-04-05T08:10:47.482Z,4.56
2023-04-05T08:15:48.969Z,4.89
2023-04-05T08:20:57.209Z,4.65
2023-04-05T08:25:58.665Z,4.69
2023-04-05T08:31:00.369Z,4.85
2023-04-05T08:36:06.233Z,4.95
2023-04-05T08:41:19.044Z,4.87
2023-04-05T08:46:22.064Z,5.06
2023-04-05T08:51:25.872Z,5.66
2023-04-05T08:56:32.217Z,5.85
2023-04-05T09:01:37.048Z,6.32
2023-04-05T09:06:39.140Z,6.63
2023-04-05T09:11:40.968Z,6.77
2023-04-05T09:16:42.788Z,6.91
2023-04-05T09:22:02.144Z,7.15
2023-04-05T09:27:13.341Z,6.99
2023-04-05T09:32:18.166Z,6.74
2023-04-05T09:37:20.921Z,6.81
2023-04-05T09:42:26.069Z,6.95
2023-04-05T09:47:32.470Z,7.14
2023-04-05T09:52:34.152Z,7.06
2023-04-05T09:57:37.739Z,7.02
2023-04-05T10:02:39.953Z,7.35
2023-04-05T10:07:42.993Z,7.47
2023-04-05T10:12:46.718Z,7.22
2023-04-05T10:18:06.524Z,7.18
2023-04-05T10:23:12.685Z,6.97
2023-04-05T10:28:36.274Z,6.64
2023-04-05T10:33:46.424Z,6.77
2023-04-05T10:39:04.194Z,6.98
2023-04-05T10:44:18.835Z,6.93
2023-04-05T10:49:37.663Z,6.92
2023-04-05T10:54:40.282Z,6.92
2023-04-05T10:59:45.138Z,7.25
2023-04-05T11:04:46.966Z,7.53
2023-04-05T11:09:57.559Z,7.26
2023-04-05T11:15:36.597Z,6.83
2023-04-05T11:20:44.038Z,6.90
2023-04-05T11:25:54.169Z,7.33
2023-04-05T11:30:57.316Z,7.57
2023-04-05T11:36:03.124Z,7.64
2023-04-05T11:41:17.862Z,7.37
2023-04-05T11:46:21.317Z,7.27
2023-04-05T11:51:24.466Z,6.85
2023-04-05T11:56:26.111Z,6.88
2023-04-05T12:01:27.575Z,6.85
2023-04-05T12:06:29.009Z,6.75
2023-04-05T12:11:33.329Z,6.97
2023-04-05T12:16:34.766Z,7.66
2023-04-05T12:21:36.837Z,7.82
2023-04-05T12:26:38.700Z,7.89
2023-04-05T12:31:45.193Z,7.43
2023-04-05T12:36:46.784Z,7.43
2023-04-05T12:41:59.505Z,7.08
2023-04-05T12:47:09.198Z,6.95
2023-04-05T12:52:11.580Z,7.10
2023-04-05T12:57:14.275Z,7.27
2023-04-05T13:02:15.778Z,7.15
2023-04-05T13:07:17.298Z,7.27
2023-04-05T13:12:18.910Z,7.55
2023-04-05T13:17:21.363Z,7.48
2023-04-05T13:22:22.808Z,7.38
2023-04-05T13:27:24.256Z,7.23
2023-04-05T13:32:25.891Z,7.18
2023-04-05T13:37:27.428Z,6.62
2023-04-05T13:42:28.898Z,6.40
2023-04-05T13:47:30.397Z,6.20
2023-04-05T13:52:31.844Z,6.21
2023-04-05T13:57:33.292Z,6.47
2023-04-05T14:02:34.959Z,6.68
2023-04-05T14:07:36.954Z,6.72
2023-04-05T14:12:39.277Z,6.85
2023-04-05T14:17:40.890Z,6.76
2023-04-05T14:22:42.382Z,6.62
2023-04-05T14:27:43.849Z,6.60
2023-04-05T14:32:45.341Z,6.60
2023-04-05T14:37:46.806Z,6.77
2023-04-05T14:42:50.218Z,7.00
2023-04-05T14:47:51.994Z,6.68
2023-04-05T14:52:53.960Z,6.60
2023-04-05T14:57:55.411Z,6.92
2023-04-05T15:02:56.985Z,7.21
2023-04-05T15:07:58.509Z,7.28
2023-04-05T15:13:00.344Z,7.37
2023-04-05T15:18:02.521Z,7.31
2023-04-05T15:23:04.022Z,7.41
2023-04-05T15:28:06.995Z,7.44
2023-04-05T15:33:08.631Z,7.24
2023-04-05T15:38:10.217Z,7.14
2023-04-05T15:43:11.686Z,7.04
2023-04-05T15:48:13.878Z,6.77
2023-04-05T15:53:15.611Z,6.66
2023-04-05T15:58:17.062Z,6.43
2023-04-05T16:03:18.628Z,6.13
2023-04-05T16:08:20.087Z,6.10
2023-04-05T16:13:21.683Z,6.09
2023-04-05T16:18:24.324Z,6.05
2023-04-05T16:23:25.885Z,5.99
2023-04-05T16:28:27.332Z,5.83
2023-04-05T16:33:28.732Z,5.77
2023-04-05T16:38:30.184Z,5.74
2023-04-05T16:43:31.634Z,5.49
2023-04-05T16:48:33.075Z,5.47
2023-04-05T16:53:34.524Z,5.56
2023-04-05T16:58:36.003Z,5.57
2023-04-05T17:03:37.688Z,5.57
2023-04-05T17:08:39.148Z,5.59
2023-04-05T17:13:41.899Z,5.58
2023-04-05T17:18:43.356Z,5.69
2023-04-05T17:23:44.821Z,5.68
2023-04-05T17:28:46.604Z,5.54
2023-04-05T17:33:48.895Z,5.50
2023-04-05T17:38:50.712Z,5.58
2023-04-05T17:43:52.180Z,5.65
2023-04-05T17:48:54.157Z,5.47
2023-04-05T17:53:57.433Z,5.37
2023-04-05T17:58:58.878Z,5.15
2023-04-05T18:04:01.197Z,5.11
2023-04-05T18:09:03.668Z,5.08
2023-04-05T18:14:05.515Z,5.07
2023-04-05T18:19:07.416Z,5.08
2023-04-05T18:24:10.613Z,5.03
2023-04-05T18:29:12.287Z,4.96
2023-04-05T18:34:13.757Z,4.75
2023-04-05T18:39:15.713Z,4.50
2023-04-05T18:44:17.168Z,4.33
2023-04-05T18:49:19.201Z,4.31
2023-04-05T18:54:20.807Z,4.27
2023-04-05T18:59:22.643Z,4.16
2023-04-05T19:04:24.126Z,4.14
2023-04-05T19:09:26.542Z,4.15
2023-04-05T19:14:28.048Z,4.01
2023-04-05T19:19:29.448Z,3.88
2023-04-05T19:24:30.850Z,3.77
2023-04-05T19:29:34.572Z,3.79
2023-04-05T19:34:37.981Z,3.66
2023-04-05T19:39:39.558Z,3.67
2023-04-05T19:44:49.598Z,3.55
2023-04-05T19:49:52.630Z,3.47
2023-04-05T19:54:54.463Z,3.52
2023-04-05T19:59:55.963Z,3.52
2023-04-05T20:04:57.385Z,3.41
2023-04-05T20:09:58.827Z,3.32
2023-04-05T20:15:00.275Z,3.26
2023-04-05T20:20:01.811Z,3.27
2023-04-05T20:25:31.555Z,3.27
2023-04-05T20:30:33.051Z,3.27
2023-04-05T20:35:36.191Z,3.11
2023-04-05T20:40:37.642Z,3.03
2023-04-05T20:45:39.068Z,3.03
2023-04-05T20:50:40.931Z,3.04
2023-04-05T20:55:42.429Z,2.97
2023-04-05T21:00:43.903Z,2.85
2023-04-05T21:05:45.455Z,2.77
2023-04-05T21:10:46.969Z,2.74
2023-04-05T21:15:49.034Z,2.73
2023-04-05T21:20:52.126Z,2.65
2023-04-05T21:25:57.452Z,2.80
2023-04-05T21:30:58.971Z,2.87
2023-04-05T21:36:00.587Z,2.85
2023-04-05T21:41:02.081Z,2.80
2023-04-05T21:46:03.492Z,2.79
2023-04-05T21:51:04.923Z,2.82
2023-04-05T21:56:06.427Z,2.81
2023-04-05T22:01:07.887Z,2.75
2023-04-05T22:06:09.309Z,2.73
2023-04-05T22:11:10.731Z,2.73
2023-04-05T22:16:12.509Z,2.71
2023-04-05T22:21:13.972Z,2.68
2023-04-05T22:26:15.373Z,2.61
2023-04-05T22:31:17.246Z,2.51
2023-04-05T22:36:18.674Z,2.49
2023-04-05T22:41:20.136Z,2.42
2023-04-05T22:46:21.669Z,2.29
2023-04-05T22:51:23.186Z,2.20
2023-04-05T22:56:24.671Z,2.13
2023-04-05T23:01:26.582Z,2.13
2023-04-05T23:06:28.055Z,2.04
2023-04-05T23:11:29.471Z,1.96
2023-04-05T23:16:30.903Z,1.92
2023-04-05T23:21:32.392Z,1.91
2023-04-05T23:26:34.468Z,1.86
2023-04-05T23:31:35.919Z,1.79
2023-04-05T23:36:37.657Z,1.78
2023-04-05T23:41:39.350Z,1.72
2023-04-05T23:46:40.902Z,1.60
2023-04-05T23:51:42.896Z,1.55
2023-04-05T23:56:44.683Z,1.52
